Hauptseite
METAR-TAF:

METAR-TAF

Flughäfen :

Flughafen Poitiers-Biard

Poitiers, Frankreich

Breite: 46-35N, Länge: 000-19E, Höhe: 129 m

Beobachtung

Neuester Wetterbericht von vor 33 Minuten, um 00:00 UTC
Wind 3 kt aus Ost/Südost
Temperatur 11°C
Luftfeuchtigkeit 94%
Luftdruck 1021 hPa
Sichtweite: 9000 m

METAR: LFBI 150000Z AUTO 11003KT 9000 NSC 11/10 Q1021 NOSIG

Zeit: 01:33 (00:33 UTC)

Prognose

Neuester Wetterbericht von vor 1 Stunde und 33 Minuten, um 23:00 UTC
Gültige Prognose vom 15 um 00 UTC bis 15 um 24 UTC
Wind 5 kt aus Ost/Südost
Sichtweite: 7000 m
Wahrscheinlichkeit 30% :
Zeitweise
vom 15 um 02 UTC bis 15 um 07 UTC
Sichtweite: 0500 m
Nebel
Wahrscheinlichkeit 40%
vom 15 um 21 UTC bis 15 um 24 UTC
Sichtweite: 0800 m
Nebelschwaden

TAF: LFBI 142300Z 1500/1524 11005KT 7000 NSC PROB30 TEMPO 1502/1507 0500 FG VV/// PROB40 1521/1524 0800 BCFG

Wetterbeobachtungen und Prognosen von mehr als 4000 Flughäfen (METAR und TAF Bericht).

Die verfügbaren Stationen werden durch gelbe und rote Markierungen auf der Karte dargestellt.

Führen Sie die Maus auf sie, um den Namen der Station zu sehen.

Darauf klicken, um die Beobachtung von Wetterbeobachtungen und Prognosen zu sehen.

Um die Karte zu ändern : klicken Sie auf den grünen Tasten mit einem schwarzen Kreuz Zum Vergrößern, auf den grünen Button mit einem Gedankenstrich zu verkleinern, oder auf die grünen Pfeile für benachbarte Karten.


METAR-TAF: